sensor_id;sensor_type;location;lat;lon;timestamp;pressure;altitude;pressure_sealevel;temperature;humidity
49651;BME280;35547;55.676;37.492;2022-10-01T00:00:19;99142.44;;;22.00;55.36
49651;BME280;35547;55.676;37.492;2022-10-01T00:01:19;99142.94;;;21.94;55.66
49651;BME280;35547;55.676;37.492;2022-10-01T00:02:20;99143.31;;;22.01;55.96
49651;BME280;35547;55.676;37.492;2022-10-01T00:03:22;99141.31;;;21.92;55.87
49651;BME280;35547;55.676;37.492;2022-10-01T00:04:22;99140.66;;;22.01;55.63
49651;BME280;35547;55.676;37.492;2022-10-01T00:05:23;99143.72;;;22.07;55.62
49651;BME280;35547;55.676;37.492;2022-10-01T00:06:23;99141.06;;;22.07;55.28
49651;BME280;35547;55.676;37.492;2022-10-01T00:07:23;99142.06;;;21.94;55.77
49651;BME280;35547;55.676;37.492;2022-10-01T00:08:24;99138.66;;;21.92;55.98
49651;BME280;35547;55.676;37.492;2022-10-01T00:09:26;99141.63;;;22.00;55.67
49651;BME280;35547;55.676;37.492;2022-10-01T00:10:26;99143.19;;;22.02;55.38
49651;BME280;35547;55.676;37.492;2022-10-01T00:11:29;99144.66;;;22.06;55.58
49651;BME280;35547;55.676;37.492;2022-10-01T00:12:30;99137.88;;;22.02;55.78
49651;BME280;35547;55.676;37.492;2022-10-01T00:13:30;99139.41;;;21.94;55.80
49651;BME280;35547;55.676;37.492;2022-10-01T00:14:30;99143.31;;;22.01;55.58
49651;BME280;35547;55.676;37.492;2022-10-01T00:15:31;99137.13;;;22.00;55.55
49651;BME280;35547;55.676;37.492;2022-10-01T00:16:32;99142.88;;;22.07;55.62
49651;BME280;35547;55.676;37.492;2022-10-01T00:17:32;99147.13;;;22.09;55.37
49651;BME280;35547;55.676;37.492;2022-10-01T00:18:39;99144.34;;;22.11;55.42
49651;BME280;35547;55.676;37.492;2022-10-01T00:19:39;99139.97;;;22.23;55.40
49651;BME280;35547;55.676;37.492;2022-10-01T00:20:40;99140.38;;;22.29;54.96
49651;BME280;35547;55.676;37.492;2022-10-01T00:21:42;99137.81;;;22.28;55.02
49651;BME280;35547;55.676;37.492;2022-10-01T00:22:42;99136.47;;;22.22;54.88
49651;BME280;35547;55.676;37.492;2022-10-01T00:23:43;99134.84;;;22.20;55.23
49651;BME280;35547;55.676;37.492;2022-10-01T00:24:45;99137.84;;;22.15;55.11
49651;BME280;35547;55.676;37.492;2022-10-01T00:25:46;99137.44;;;22.08;55.36
49651;BME280;35547;55.676;37.492;2022-10-01T00:26:48;99129.25;;;22.12;55.41
49651;BME280;35547;55.676;37.492;2022-10-01T00:27:48;99130.84;;;22.14;55.69
49651;BME280;35547;55.676;37.492;2022-10-01T00:28:52;99131.56;;;22.16;55.22
49651;BME280;35547;55.676;37.492;2022-10-01T00:29:53;99134.00;;;22.19;55.19
49651;BME280;35547;55.676;37.492;2022-10-01T00:30:53;99138.28;;;22.09;55.48
49651;BME280;35547;55.676;37.492;2022-10-01T00:31:53;99132.03;;;22.10;55.75
49651;BME280;35547;55.676;37.492;2022-10-01T00:32:54;99140.81;;;22.23;55.04
49651;BME280;35547;55.676;37.492;2022-10-01T00:33:55;99135.72;;;22.20;54.98
49651;BME280;35547;55.676;37.492;2022-10-01T00:34:58;99129.66;;;22.18;55.40
49651;BME280;35547;55.676;37.492;2022-10-01T00:35:59;99136.34;;;22.11;55.30
49651;BME280;35547;55.676;37.492;2022-10-01T00:36:59;99139.66;;;22.15;55.44
49651;BME280;35547;55.676;37.492;2022-10-01T00:37:59;99129.75;;;22.17;55.07
49651;BME280;35547;55.676;37.492;2022-10-01T00:39:00;99130.50;;;22.19;55.08
49651;BME280;35547;55.676;37.492;2022-10-01T00:40:01;99134.41;;;22.26;54.89
49651;BME280;35547;55.676;37.492;2022-10-01T00:41:01;99133.56;;;22.25;55.08
49651;BME280;35547;55.676;37.492;2022-10-01T00:42:02;99136.78;;;22.18;55.28
49651;BME280;35547;55.676;37.492;2022-10-01T00:43:18;99140.28;;;22.18;55.17
49651;BME280;35547;55.676;37.492;2022-10-01T00:45:24;99132.41;;;22.17;55.21
49651;BME280;35547;55.676;37.492;2022-10-01T00:46:31;99130.19;;;22.23;55.31
49651;BME280;35547;55.676;37.492;2022-10-01T00:47:35;99131.78;;;22.13;55.52
49651;BME280;35547;55.676;37.492;2022-10-01T00:48:51;99136.16;;;22.14;55.37
49651;BME280;35547;55.676;37.492;2022-10-01T00:50:00;99129.66;;;22.18;55.11
49651;BME280;35547;55.676;37.492;2022-10-01T00:51:02;99132.84;;;22.11;55.52
49651;BME280;35547;55.676;37.492;2022-10-01T00:52:07;99129.75;;;22.17;55.17
49651;BME280;35547;55.676;37.492;2022-10-01T00:53:09;99134.44;;;22.13;55.53
49651;BME280;35547;55.676;37.492;2022-10-01T00:54:21;99130.09;;;22.12;55.33
49651;BME280;35547;55.676;37.492;2022-10-01T00:56:05;99130.38;;;22.20;55.20
49651;BME280;35547;55.676;37.492;2022-10-01T00:56:46;99128.53;;;22.09;55.64
49651;BME280;35547;55.676;37.492;2022-10-01T00:57:48;99132.16;;;21.96;56.31
49651;BME280;35547;55.676;37.492;2022-10-01T00:58:49;99134.69;;;22.10;55.51
49651;BME280;35547;55.676;37.492;2022-10-01T00:59:55;99134.69;;;22.10;55.83
49651;BME280;35547;55.676;37.492;2022-10-01T01:00:57;99129.59;;;22.07;55.63
49651;BME280;35547;55.676;37.492;2022-10-01T01:01:57;99138.81;;;22.14;55.73
49651;BME280;35547;55.676;37.492;2022-10-01T01:02:58;99130.94;;;22.13;55.58
49651;BME280;35547;55.676;37.492;2022-10-01T01:03:58;99141.81;;;22.09;55.95
49651;BME280;35547;55.676;37.492;2022-10-01T01:04:59;99135.06;;;22.17;55.58
49651;BME280;35547;55.676;37.492;2022-10-01T01:05:59;99136.34;;;22.24;55.29
49651;BME280;35547;55.676;37.492;2022-10-01T01:07:00;99132.16;;;22.33;55.00
49651;BME280;35547;55.676;37.492;2022-10-01T01:08:01;99131.75;;;22.26;55.35
49651;BME280;35547;55.676;37.492;2022-10-01T01:09:02;99135.91;;;22.30;55.22
49651;BME280;35547;55.676;37.492;2022-10-01T01:10:03;99132.06;;;22.34;54.75
49651;BME280;35547;55.676;37.492;2022-10-01T01:11:28;99133.88;;;22.34;54.82
49651;BME280;35547;55.676;37.492;2022-10-01T01:15:07;99136.47;;;22.22;55.08
49651;BME280;35547;55.676;37.492;2022-10-01T01:16:11;99140.28;;;22.18;55.15
49651;BME280;35547;55.676;37.492;2022-10-01T01:17:18;99142.09;;;22.18;55.53
49651;BME280;35547;55.676;37.492;2022-10-01T01:20:47;99140.22;;;22.07;55.65
49651;BME280;35547;55.676;37.492;2022-10-01T01:21:50;99137.84;;;22.15;55.26
49651;BME280;35547;55.676;37.492;2022-10-01T01:24:31;99132.84;;;22.23;55.00
49651;BME280;35547;55.676;37.492;2022-10-01T01:25:40;99131.34;;;22.19;55.21
49651;BME280;35547;55.676;37.492;2022-10-01T01:28:19;99132.53;;;22.15;55.91
49651;BME280;35547;55.676;37.492;2022-10-01T01:30:21;99129.41;;;21.97;56.01
49651;BME280;35547;55.676;37.492;2022-10-01T01:31:23;99127.38;;;22.01;55.85
49651;BME280;35547;55.676;37.492;2022-10-01T01:32:32;99126.94;;;22.07;55.47
49651;BME280;35547;55.676;37.492;2022-10-01T01:33:34;99125.22;;;22.06;55.65
49651;BME280;35547;55.676;37.492;2022-10-01T01:34:36;99122.50;;;21.95;56.03
49651;BME280;35547;55.676;37.492;2022-10-01T01:35:52;99123.53;;;22.05;55.68
49651;BME280;35547;55.676;37.492;2022-10-01T01:36:55;99118.28;;;21.92;56.33
49651;BME280;35547;55.676;37.492;2022-10-01T01:37:59;99114.69;;;22.04;55.86
49651;BME280;35547;55.676;37.492;2022-10-01T01:39:02;99117.50;;;22.03;55.90
49651;BME280;35547;55.676;37.492;2022-10-01T01:40:03;99112.81;;;21.94;56.44
49651;BME280;35547;55.676;37.492;2022-10-01T01:41:05;99116.06;;;21.86;56.53
49651;BME280;35547;55.676;37.492;2022-10-01T01:42:09;99115.50;;;21.81;56.68
49651;BME280;35547;55.676;37.492;2022-10-01T01:43:12;99121.47;;;21.84;56.53
49651;BME280;35547;55.676;37.492;2022-10-01T01:44:25;99116.41;;;21.68;57.03
49651;BME280;35547;55.676;37.492;2022-10-01T01:45:27;99115.00;;;21.76;56.79
49651;BME280;35547;55.676;37.492;2022-10-01T01:46:31;99118.63;;;21.75;56.79
49651;BME280;35547;55.676;37.492;2022-10-01T01:47:32;99116.56;;;21.91;56.28
49651;BME280;35547;55.676;37.492;2022-10-01T01:48:34;99118.78;;;21.97;56.08
49651;BME280;35547;55.676;37.492;2022-10-01T01:49:37;99114.94;;;22.01;55.96
49651;BME280;35547;55.676;37.492;2022-10-01T01:50:43;99114.59;;;22.06;55.64
49651;BME280;35547;55.676;37.492;2022-10-01T01:51:50;99110.16;;;21.94;55.96
49651;BME280;35547;55.676;37.492;2022-10-01T01:52:52;99108.41;;;21.81;56.43
49651;BME280;35547;55.676;37.492;2022-10-01T01:53:53;99110.84;;;21.84;56.42
49651;BME280;35547;55.676;37.492;2022-10-01T01:54:54;99110.59;;;21.87;56.34
49651;BME280;35547;55.676;37.492;2022-10-01T01:55:55;99112.75;;;21.82;56.29
49651;BME280;35547;55.676;37.492;2022-10-01T01:56:56;99113.25;;;21.87;56.31
49651;BME280;35547;55.676;37.492;2022-10-01T01:57:57;99111.88;;;21.95;55.80
49651;BME280;35547;55.676;37.492;2022-10-01T01:58:58;99117.53;;;21.90;55.88
49651;BME280;35547;55.676;37.492;2022-10-01T01:59:59;99111.91;;;21.82;56.35
49651;BME280;35547;55.676;37.492;2022-10-01T02:01:00;99111.06;;;21.81;56.08
49651;BME280;35547;55.676;37.492;2022-10-01T02:02:01;99117.31;;;21.80;56.16
49651;BME280;35547;55.676;37.492;2022-10-01T02:03:05;99110.94;;;21.83;56.09
49651;BME280;35547;55.676;37.492;2022-10-01T02:04:13;99112.84;;;21.81;56.16
49651;BME280;35547;55.676;37.492;2022-10-01T02:05:17;99116.69;;;21.77;56.12
49651;BME280;35547;55.676;37.492;2022-10-01T02:06:24;99115.00;;;21.76;56.25
49651;BME280;35547;55.676;37.492;2022-10-01T02:08:48;99108.63;;;21.78;56.08
49651;BME280;35547;55.676;37.492;2022-10-01T02:12:51;99109.56;;;21.90;55.86
49651;BME280;35547;55.676;37.492;2022-10-01T02:15:28;99096.66;;;21.73;56.48
49651;BME280;35547;55.676;37.492;2022-10-01T02:20:16;99095.34;;;21.78;56.06
49651;BME280;35547;55.676;37.492;2022-10-01T02:21:22;99101.03;;;21.85;55.96
49651;BME280;35547;55.676;37.492;2022-10-01T02:22:36;99095.03;;;21.70;56.45
49651;BME280;35547;55.676;37.492;2022-10-01T02:23:44;99093.13;;;21.72;56.36
49651;BME280;35547;55.676;37.492;2022-10-01T02:24:50;99096.94;;;21.68;56.31
49651;BME280;35547;55.676;37.492;2022-10-01T02:25:54;99093.28;;;21.58;57.01
49651;BME280;35547;55.676;37.492;2022-10-01T02:26:55;99094.56;;;21.52;56.99
49651;BME280;35547;55.676;37.492;2022-10-01T02:27:57;99096.78;;;21.58;57.03
49651;BME280;35547;55.676;37.492;2022-10-01T02:29:02;99091.13;;;21.63;56.55
49651;BME280;35547;55.676;37.492;2022-10-01T02:30:04;99089.31;;;21.63;56.80
49651;BME280;35547;55.676;37.492;2022-10-01T02:31:09;99092.72;;;21.53;57.21
49651;BME280;35547;55.676;37.492;2022-10-01T02:32:10;99082.53;;;21.46;57.60
49651;BME280;35547;55.676;37.492;2022-10-01T02:33:12;99082.13;;;21.53;57.29
49651;BME280;35547;55.676;37.492;2022-10-01T02:34:13;99087.00;;;21.59;57.13
49651;BME280;35547;55.676;37.492;2022-10-01T02:35:16;99080.75;;;21.60;57.09
49651;BME280;35547;55.676;37.492;2022-10-01T02:36:18;99085.81;;;21.63;56.88
49651;BME280;35547;55.676;37.492;2022-10-01T02:37:20;99081.69;;;21.59;57.07
49651;BME280;35547;55.676;37.492;2022-10-01T02:38:22;99083.59;;;21.57;57.07
49651;BME280;35547;55.676;37.492;2022-10-01T02:39:23;99092.31;;;21.46;57.38
49651;BME280;35547;55.676;37.492;2022-10-01T02:40:27;99085.53;;;21.42;57.43
49651;BME280;35547;55.676;37.492;2022-10-01T02:41:31;99093.47;;;21.55;57.11
49651;BME280;35547;55.676;37.492;2022-10-01T02:42:32;99086.88;;;21.60;57.00
49651;BME280;35547;55.676;37.492;2022-10-01T02:43:40;99079.84;;;21.72;56.75
49651;BME280;35547;55.676;37.492;2022-10-01T02:44:44;99084.16;;;21.86;56.21
49651;BME280;35547;55.676;37.492;2022-10-01T02:45:45;99084.03;;;21.87;56.25
49651;BME280;35547;55.676;37.492;2022-10-01T02:47:01;99083.81;;;21.91;55.82
49651;BME280;35547;55.676;37.492;2022-10-01T02:48:05;99079.94;;;21.83;56.25
49651;BME280;35547;55.676;37.492;2022-10-01T02:49:06;99078.00;;;21.85;56.09
49651;BME280;35547;55.676;37.492;2022-10-01T02:50:07;99081.16;;;21.91;55.83
49651;BME280;35547;55.676;37.492;2022-10-01T02:54:31;99075.13;;;21.88;56.04
49651;BME280;35547;55.676;37.492;2022-10-01T02:55:37;99074.75;;;21.69;57.00
49651;BME280;35547;55.676;37.492;2022-10-01T02:56:38;99076.22;;;21.73;56.84
49651;BME280;35547;55.676;37.492;2022-10-01T02:57:57;99067.19;;;21.76;56.65
49651;BME280;35547;55.676;37.492;2022-10-01T02:58:58;99071.44;;;21.78;56.43
49651;BME280;35547;55.676;37.492;2022-10-01T02:59:59;99070.91;;;21.73;56.59
49651;BME280;35547;55.676;37.492;2022-10-01T03:01:00;99069.34;;;21.71;56.53
49651;BME280;35547;55.676;37.492;2022-10-01T03:03:00;99066.38;;;21.62;57.06
49651;BME280;35547;55.676;37.492;2022-10-01T03:04:01;99072.00;;;21.71;56.76
49651;BME280;35547;55.676;37.492;2022-10-01T03:05:01;99071.25;;;21.68;56.91
49651;BME280;35547;55.676;37.492;2022-10-01T03:06:03;99072.84;;;21.71;56.84
49651;BME280;35547;55.676;37.492;2022-10-01T03:07:04;99067.53;;;21.71;56.67
49651;BME280;35547;55.676;37.492;2022-10-01T03:08:04;99065.81;;;21.70;56.73
49651;BME280;35547;55.676;37.492;2022-10-01T03:09:04;99061.69;;;21.66;57.09
49651;BME280;35547;55.676;37.492;2022-10-01T03:10:08;99058.50;;;21.61;57.12
49651;BME280;35547;55.676;37.492;2022-10-01T03:11:08;99059.66;;;21.70;56.79
49651;BME280;35547;55.676;37.492;2022-10-01T03:12:09;99057.88;;;21.57;57.19
49651;BME280;35547;55.676;37.492;2022-10-01T03:13:09;99059.38;;;21.48;57.66
49651;BME280;35547;55.676;37.492;2022-10-01T03:14:10;99061.41;;;21.58;57.55
49651;BME280;35547;55.676;37.492;2022-10-01T03:15:11;99060.72;;;21.67;57.04
49651;BME280;35547;55.676;37.492;2022-10-01T03:16:12;99066.34;;;21.75;57.15
49651;BME280;35547;55.676;37.492;2022-10-01T03:17:13;99062.41;;;21.68;57.11
49651;BME280;35547;55.676;37.492;2022-10-01T03:18:14;99062.41;;;21.68;57.12
49651;BME280;35547;55.676;37.492;2022-10-01T03:19:14;99065.06;;;21.68;57.24
49651;BME280;35547;55.676;37.492;2022-10-01T03:20:14;99072.59;;;21.74;56.93
49651;BME280;35547;55.676;37.492;2022-10-01T03:21:15;99073.56;;;21.73;56.68
49651;BME280;35547;55.676;37.492;2022-10-01T03:22:16;99064.88;;;21.71;56.99
49651;BME280;35547;55.676;37.492;2022-10-01T03:23:18;99063.34;;;21.80;56.66
49651;BME280;35547;55.676;37.492;2022-10-01T03:24:18;99070.53;;;21.91;56.46
49651;BME280;35547;55.676;37.492;2022-10-01T03:25:18;99072.97;;;21.94;56.17
49651;BME280;35547;55.676;37.492;2022-10-01T03:26:19;99074.03;;;21.91;56.34
49651;BME280;35547;55.676;37.492;2022-10-01T03:27:19;99078.91;;;21.97;56.27
49651;BME280;35547;55.676;37.492;2022-10-01T03:28:20;99065.97;;;21.93;56.46
49651;BME280;35547;55.676;37.492;2022-10-01T03:29:20;99063.31;;;21.93;56.29
49651;BME280;35547;55.676;37.492;2022-10-01T03:30:21;99066.69;;;21.95;56.37
49651;BME280;35547;55.676;37.492;2022-10-01T03:31:21;99068.28;;;21.97;56.27
49651;BME280;35547;55.676;37.492;2022-10-01T03:32:21;99066.25;;;22.01;55.93
49651;BME280;35547;55.676;37.492;2022-10-01T03:33:22;99075.28;;;21.98;56.23
49651;BME280;35547;55.676;37.492;2022-10-01T03:34:22;99065.31;;;21.89;56.56
49651;BME280;35547;55.676;37.492;2022-10-01T03:35:23;99067.81;;;21.79;56.80
49651;BME280;35547;55.676;37.492;2022-10-01T03:36:24;99067.81;;;21.79;57.12
49651;BME280;35547;55.676;37.492;2022-10-01T03:37:24;99063.34;;;21.80;57.07
49651;BME280;35547;55.676;37.492;2022-10-01T03:38:24;99060.69;;;21.80;57.16
49651;BME280;35547;55.676;37.492;2022-10-01T03:39:25;99063.66;;;21.88;56.85
49651;BME280;35547;55.676;37.492;2022-10-01T03:40:25;99056.56;;;22.00;56.68
49651;BME280;35547;55.676;37.492;2022-10-01T03:41:26;99049.03;;;21.94;56.75
49651;BME280;35547;55.676;37.492;2022-10-01T03:42:26;99057.31;;;22.02;56.54
49651;BME280;35547;55.676;37.492;2022-10-01T03:43:26;99053.56;;;22.04;56.40
49651;BME280;35547;55.676;37.492;2022-10-01T03:44:28;99053.91;;;22.00;56.73
49651;BME280;35547;55.676;37.492;2022-10-01T03:45:28;99051.84;;;21.92;57.14
49651;BME280;35547;55.676;37.492;2022-10-01T03:46:28;99058.19;;;21.89;56.89
49651;BME280;35547;55.676;37.492;2022-10-01T03:47:29;99057.94;;;22.05;56.81
49651;BME280;35547;55.676;37.492;2022-10-01T03:48:29;99053.34;;;22.07;56.39
49651;BME280;35547;55.676;37.492;2022-10-01T03:49:30;99053.31;;;21.96;56.72
49651;BME280;35547;55.676;37.492;2022-10-01T03:50:30;99053.50;;;21.93;56.84
49651;BME280;35547;55.676;37.492;2022-10-01T03:51:31;99055.00;;;21.97;56.79
49651;BME280;35547;55.676;37.492;2022-10-01T03:52:31;99052.97;;;22.01;56.47
49651;BME280;35547;55.676;37.492;2022-10-01T03:53:31;99055.72;;;21.99;56.77
49651;BME280;35547;55.676;37.492;2022-10-01T03:54:32;99052.34;;;21.97;56.67
49651;BME280;35547;55.676;37.492;2022-10-01T03:55:32;99044.41;;;21.84;57.29
49651;BME280;35547;55.676;37.492;2022-10-01T03:56:33;99050.91;;;21.80;57.49
49651;BME280;35547;55.676;37.492;2022-10-01T03:57:34;99058.88;;;21.80;57.40
49651;BME280;35547;55.676;37.492;2022-10-01T03:58:34;99058.66;;;21.83;57.58
49651;BME280;35547;55.676;37.492;2022-10-01T03:59:35;99056.13;;;21.82;57.50
49651;BME280;35547;55.676;37.492;2022-10-01T04:00:35;99055.88;;;21.85;57.27
49651;BME280;35547;55.676;37.492;2022-10-01T04:01:35;99053.84;;;21.88;57.37
49651;BME280;35547;55.676;37.492;2022-10-01T04:02:36;99058.00;;;21.93;57.04
49651;BME280;35547;55.676;37.492;2022-10-01T04:03:36;99065.56;;;21.86;57.41
49651;BME280;35547;55.676;37.492;2022-10-01T04:04:37;99057.19;;;21.79;57.24
49651;BME280;35547;55.676;37.492;2022-10-01T04:05:37;99057.41;;;21.76;57.74
49651;BME280;35547;55.676;37.492;2022-10-01T04:06:38;99061.94;;;21.87;57.63
49651;BME280;35547;55.676;37.492;2022-10-01T04:07:39;99058.16;;;22.02;56.93
49651;BME280;35547;55.676;37.492;2022-10-01T04:08:39;99057.09;;;22.05;56.64
49651;BME280;35547;55.676;37.492;2022-10-01T04:09:39;99054.50;;;21.92;57.07
49651;BME280;35547;55.676;37.492;2022-10-01T04:10:40;99058.00;;;21.93;57.21
49651;BME280;35547;55.676;37.492;2022-10-01T04:11:41;99052.66;;;21.93;57.16
49651;BME280;35547;55.676;37.492;2022-10-01T04:12:41;99053.06;;;21.99;57.10
49651;BME280;35547;55.676;37.492;2022-10-01T04:13:41;99061.63;;;22.16;56.74
49651;BME280;35547;55.676;37.492;2022-10-01T04:14:42;99056.59;;;22.24;56.15
49651;BME280;35547;55.676;37.492;2022-10-01T04:15:42;99058.19;;;22.26;55.86
49651;BME280;35547;55.676;37.492;2022-10-01T04:16:43;99052.16;;;22.36;55.73
49651;BME280;35547;55.676;37.492;2022-10-01T04:17:44;99057.69;;;22.33;55.84
49651;BME280;35547;55.676;37.492;2022-10-01T04:18:44;99057.75;;;22.44;55.59
49651;BME280;35547;55.676;37.492;2022-10-01T04:19:44;99052.53;;;22.31;55.78
49651;BME280;35547;55.676;37.492;2022-10-01T04:20:45;99053.13;;;22.35;55.62
49651;BME280;35547;55.676;37.492;2022-10-01T04:21:45;99060.25;;;22.34;55.74
49651;BME280;35547;55.676;37.492;2022-10-01T04:22:46;99056.91;;;22.43;55.27
49651;BME280;35547;55.676;37.492;2022-10-01T04:23:46;99056.66;;;22.35;55.70
49651;BME280;35547;55.676;37.492;2022-10-01T04:24:46;99063.38;;;22.28;55.78
49651;BME280;35547;55.676;37.492;2022-10-01T04:25:47;99057.97;;;22.17;56.24
49651;BME280;35547;55.676;37.492;2022-10-01T04:26:49;99063.28;;;22.17;56.25
49651;BME280;35547;55.676;37.492;2022-10-01T04:27:59;99062.56;;;22.15;56.48
49651;BME280;35547;55.676;37.492;2022-10-01T04:28:59;99061.31;;;22.07;56.77
49651;BME280;35547;55.676;37.492;2022-10-01T04:30:00;99067.47;;;22.08;56.63
49651;BME280;35547;55.676;37.492;2022-10-01T04:31:00;99066.59;;;22.20;56.25
49651;BME280;35547;55.676;37.492;2022-10-01T04:32:19;99065.00;;;22.18;56.40
49651;BME280;35547;55.676;37.492;2022-10-01T04:33:20;99061.94;;;22.11;56.79
49651;BME280;35547;55.676;37.492;2022-10-01T04:34:21;99051.81;;;22.16;56.58
49651;BME280;35547;55.676;37.492;2022-10-01T04:35:41;99059.28;;;22.11;56.44
49651;BME280;35547;55.676;37.492;2022-10-01T04:36:42;99051.41;;;22.22;56.02
49651;BME280;35547;55.676;37.492;2022-10-01T04:37:42;99058.81;;;22.17;56.29
49651;BME280;35547;55.676;37.492;2022-10-01T04:38:43;99060.00;;;22.13;56.38
49651;BME280;35547;55.676;37.492;2022-10-01T04:39:43;99056.84;;;22.08;56.71
49651;BME280;35547;55.676;37.492;2022-10-01T04:40:44;99056.66;;;21.98;57.03
49651;BME280;35547;55.676;37.492;2022-10-01T04:41:44;99056.13;;;22.06;56.87
49651;BME280;35547;55.676;37.492;2022-10-01T04:42:44;99053.41;;;22.19;56.47
49651;BME280;35547;55.676;37.492;2022-10-01T04:43:46;99055.66;;;22.12;56.37
49651;BME280;35547;55.676;37.492;2022-10-01T04:44:47;99055.66;;;22.12;56.66
49651;BME280;35547;55.676;37.492;2022-10-01T04:45:47;99057.31;;;22.26;56.04
49651;BME280;35547;55.676;37.492;2022-10-01T04:46:47;99059.25;;;22.24;56.23
49651;BME280;35547;55.676;37.492;2022-10-01T04:47:51;99059.53;;;22.32;55.76
49651;BME280;35547;55.676;37.492;2022-10-01T04:48:52;99057.69;;;22.33;55.89
49651;BME280;35547;55.676;37.492;2022-10-01T04:49:53;99052.25;;;22.23;55.93
49651;BME280;35547;55.676;37.492;2022-10-01T04:50:53;99058.19;;;22.26;55.96
49651;BME280;35547;55.676;37.492;2022-10-01T04:51:54;99057.34;;;22.13;56.13
49651;BME280;35547;55.676;37.492;2022-10-01T04:52:54;99059.06;;;22.14;56.46
49651;BME280;35547;55.676;37.492;2022-10-01T04:53:54;99058.41;;;22.23;56.22
49651;BME280;35547;55.676;37.492;2022-10-01T04:54:55;99063.41;;;22.15;56.43
49651;BME280;35547;55.676;37.492;2022-10-01T04:55:55;99061.44;;;22.06;56.95
49651;BME280;35547;55.676;37.492;2022-10-01T04:56:55;99056.16;;;22.17;56.22
49651;BME280;35547;55.676;37.492;2022-10-01T04:57:57;99054.78;;;22.24;56.31
49651;BME280;35547;55.676;37.492;2022-10-01T04:58:57;99058.41;;;22.23;56.07
49651;BME280;35547;55.676;37.492;2022-10-01T04:59:58;99052.97;;;22.25;55.89
49651;BME280;35547;55.676;37.492;2022-10-01T05:00:58;99059.03;;;22.27;55.67
49651;BME280;35547;55.676;37.492;2022-10-01T05:01:59;99060.88;;;22.38;55.53
49651;BME280;35547;55.676;37.492;2022-10-01T05:02:59;99061.47;;;22.17;55.92
49651;BME280;35547;55.676;37.492;2022-10-01T05:03:59;99064.03;;;22.19;56.06
49651;BME280;35547;55.676;37.492;2022-10-01T05:05:01;99056.00;;;22.07;56.49
49651;BME280;35547;55.676;37.492;2022-10-01T05:06:03;99065.63;;;21.97;56.78
49651;BME280;35547;55.676;37.492;2022-10-01T05:07:04;99060.06;;;22.00;56.67
49651;BME280;35547;55.676;37.492;2022-10-01T05:08:04;99060.19;;;21.99;56.39
49651;BME280;35547;55.676;37.492;2022-10-01T05:09:04;99052.63;;;22.05;56.48
49651;BME280;35547;55.676;37.492;2022-10-01T05:10:06;99062.41;;;22.05;56.73
49651;BME280;35547;55.676;37.492;2022-10-01T05:11:06;99058.53;;;22.09;56.51
49651;BME280;35547;55.676;37.492;2022-10-01T05:12:07;99062.16;;;22.08;56.49
49651;BME280;35547;55.676;37.492;2022-10-01T05:13:07;99057.94;;;22.05;56.48
49651;BME280;35547;55.676;37.492;2022-10-01T05:14:08;99060.50;;;22.07;56.34
49651;BME280;35547;55.676;37.492;2022-10-01T05:15:08;99055.66;;;22.12;56.42
49651;BME280;35547;55.676;37.492;2022-10-01T05:16:09;99053.81;;;22.25;55.79
49651;BME280;35547;55.676;37.492;2022-10-01T05:17:11;99059.03;;;22.27;55.57
49651;BME280;35547;55.676;37.492;2022-10-01T05:18:11;99055.53;;;22.26;55.92
49651;BME280;35547;55.676;37.492;2022-10-01T05:19:11;99054.66;;;22.26;55.81
49651;BME280;35547;55.676;37.492;2022-10-01T05:20:16;99061.47;;;22.17;56.07
49651;BME280;35547;55.676;37.492;2022-10-01T05:21:17;99058.97;;;22.16;56.12
49651;BME280;35547;55.676;37.492;2022-10-01T05:22:18;99055.66;;;22.12;56.26
49651;BME280;35547;55.676;37.492;2022-10-01T05:23:18;99056.97;;;22.06;56.33
49651;BME280;35547;55.676;37.492;2022-10-01T05:24:19;99057.69;;;22.08;56.48
49651;BME280;35547;55.676;37.492;2022-10-01T05:25:19;99054.81;;;22.12;56.16
49651;BME280;35547;55.676;37.492;2022-10-01T05:26:20;99053.00;;;22.12;56.32
49651;BME280;35547;55.676;37.492;2022-10-01T05:27:20;99057.03;;;22.18;55.99
49651;BME280;35547;55.676;37.492;2022-10-01T05:28:21;99048.50;;;22.25;55.58
49651;BME280;35547;55.676;37.492;2022-10-01T05:29:21;99046.69;;;22.26;56.05
49651;BME280;35547;55.676;37.492;2022-10-01T05:30:22;99051.44;;;22.34;55.65
49651;BME280;35547;55.676;37.492;2022-10-01T05:31:25;99050.97;;;22.40;55.54
49651;BME280;35547;55.676;37.492;2022-10-01T05:32:25;99046.84;;;22.36;55.33
49651;BME280;35547;55.676;37.492;2022-10-01T05:33:26;99046.75;;;22.37;55.68
49651;BME280;35547;55.676;37.492;2022-10-01T05:34:27;99050.91;;;22.53;54.96
49651;BME280;35547;55.676;37.492;2022-10-01T05:35:27;99053.91;;;22.48;55.19
49651;BME280;35547;55.676;37.492;2022-10-01T05:36:28;99052.16;;;22.36;55.42
49651;BME280;35547;55.676;37.492;2022-10-01T05:37:28;99047.25;;;22.18;55.90
49651;BME280;35547;55.676;37.492;2022-10-01T05:38:29;99046.41;;;22.18;55.88
49651;BME280;35547;55.676;37.492;2022-10-01T05:39:30;99050.22;;;22.26;55.67
49651;BME280;35547;55.676;37.492;2022-10-01T05:40:30;99042.44;;;22.23;55.76
49651;BME280;35547;55.676;37.492;2022-10-01T05:41:31;99041.94;;;22.18;56.03
49651;BME280;35547;55.676;37.492;2022-10-01T05:42:31;99042.34;;;22.25;56.00
49651;BME280;35547;55.676;37.492;2022-10-01T05:43:31;99039.97;;;22.33;55.61
49651;BME280;35547;55.676;37.492;2022-10-01T05:44:32;99038.25;;;22.32;55.63
49651;BME280;35547;55.676;37.492;2022-10-01T05:45:36;99039.34;;;22.29;55.69
49651;BME280;35547;55.676;37.492;2022-10-01T05:46:38;99034.91;;;22.17;56.20
49651;BME280;35547;55.676;37.492;2022-10-01T05:47:38;99033.38;;;22.26;55.80
49651;BME280;35547;55.676;37.492;2022-10-01T05:48:41;99039.81;;;22.35;55.54